Time;durP1;ratioP1;P1;durP2;ratioP2;P2;SDS_P1;SDS_P2;PMS_P1;PMS_P2;Temp;Humidity;BMP_temperature;BMP_pressure;BME280_temperature;BME280_humidity;BME280_pressure;Samples;Min_cycle;Max_cycle;Signal;HPM_P1;HPM_P2
2022/03/28 00:01:09;;;;;;;2.20;0.93;;;14.90;62.20;;;;;;5056994;28;20055;-74
2022/03/28 00:03:35;;;;;;;3.80;1.30;;;15.00;62.30;;;;;;5074209;28;20052;-74
2022/03/28 00:06:02;;;;;;;1.77;1.08;;;15.00;62.20;;;;;;5057658;28;20123;-74
2022/03/28 00:08:28;;;;;;;2.25;1.13;;;15.00;62.00;;;;;;5040438;28;20056;-76
2022/03/28 00:10:55;;;;;;;2.45;1.35;;;14.90;62.10;;;;;;5075199;28;20433;-74
2022/03/28 00:13:21;;;;;;;3.67;1.40;;;14.90;62.30;;;;;;5078049;28;20057;-75
2022/03/28 00:15:46;;;;;;;2.47;1.60;;;14.90;62.30;;;;;;5078361;28;20056;-76
2022/03/28 00:18:13;;;;;;;4.35;1.48;;;14.90;62.30;;;;;;5060600;28;20471;-75
2022/03/28 00:20:38;;;;;;;2.50;1.30;;;14.90;62.20;;;;;;5078100;28;20044;-75
2022/03/28 00:23:05;;;;;;;3.08;1.30;;;14.90;62.30;;;;;;5060390;28;20052;-75
2022/03/28 00:25:31;;;;;;;4.53;1.65;;;14.90;62.20;;;;;;5077845;28;20048;-74
2022/03/28 00:27:57;;;;;;;2.20;0.95;;;15.00;62.20;;;;;;5060412;28;20068;-75
2022/03/28 00:30:22;;;;;;;2.92;1.20;;;15.00;62.20;;;;;;5060565;28;20329;-74
2022/03/28 00:32:48;;;;;;;2.33;1.30;;;15.00;62.10;;;;;;5061011;28;20379;-76
2022/03/28 00:35:14;;;;;;;3.30;1.67;;;15.00;62.10;;;;;;5077391;28;20063;-74
2022/03/28 00:37:41;;;;;;;3.38;1.58;;;15.00;62.10;;;;;;5077609;28;20048;-74
2022/03/28 00:40:11;;;;;;;2.47;1.42;;;15.00;62.00;;;;;;5059933;28;20099;-74
2022/03/28 00:42:37;;;;;;;4.57;1.63;;;14.90;61.90;;;;;;5060935;28;20059;-75
2022/03/28 00:45:05;;;;;;;2.75;1.42;;;14.90;62.10;;;;;;5078050;28;20040;-75
2022/03/28 00:47:31;;;;;;;2.83;1.48;;;14.90;62.10;;;;;;5059999;28;20049;-74
2022/03/28 00:49:57;;;;;;;4.18;1.40;;;14.90;62.10;;;;;;5059917;28;20052;-74
2022/03/28 00:52:23;;;;;;;3.97;1.25;;;14.90;62.00;;;;;;5059945;28;20056;-73
2022/03/28 00:54:50;;;;;;;2.03;1.20;;;14.90;62.00;;;;;;5060299;28;20052;-76
2022/03/28 00:57:17;;;;;;;2.10;1.15;;;14.90;62.00;;;;;;5077016;28;20084;-73
2022/03/28 00:59:43;;;;;;;1.60;0.68;;;14.90;61.90;;;;;;5077354;28;20417;-74
2022/03/28 01:02:09;;;;;;;2.95;1.08;;;14.90;61.90;;;;;;5059964;28;20052;-74
2022/03/28 01:04:37;;;;;;;5.18;1.30;;;14.90;62.00;;;;;;5077032;28;20041;-76
2022/03/28 01:07:06;;;;;;;4.35;1.35;;;14.80;61.90;;;;;;5077667;28;20067;-74
2022/03/28 01:09:33;;;;;;;3.08;1.05;;;14.90;62.00;;;;;;5076651;28;20055;-74
2022/03/28 01:12:00;;;;;;;3.10;0.95;;;14.80;61.90;;;;;;5059688;28;20370;-75
2022/03/28 01:14:26;;;;;;;3.15;1.05;;;14.80;61.90;;;;;;5060089;28;20048;-74
2022/03/28 01:19:37;;;;;;;2.47;0.80;;;14.70;61.90;;;;;;5059407;28;20044;-75
2022/03/28 01:22:03;;;;;;;1.48;0.90;;;14.70;62.00;;;;;;5076191;28;20059;-75
2022/03/28 01:24:28;;;;;;;3.97;0.95;;;14.70;61.90;;;;;;5076117;28;20470;-75
2022/03/28 01:26:55;;;;;;;2.03;0.70;;;14.70;62.00;;;;;;5059131;28;20044;-74
2022/03/28 01:29:21;;;;;;;1.23;0.68;;;14.70;62.00;;;;;;5076601;28;20081;-75
2022/03/28 01:31:47;;;;;;;2.65;0.93;;;14.70;62.00;;;;;;5059282;28;20119;-74
2022/03/28 01:34:20;;;;;;;2.40;0.68;;;14.70;61.90;;;;;;5059289;28;20110;-74
2022/03/28 01:36:47;;;;;;;1.90;0.45;;;14.70;62.00;;;;;;5076160;28;20349;-73
2022/03/28 01:39:17;;;;;;;1.73;0.57;;;14.70;61.90;;;;;;5059403;28;20430;-73
2022/03/28 01:41:44;;;;;;;2.35;0.80;;;14.70;61.90;;;;;;5059240;28;20110;-75
2022/03/28 01:44:10;;;;;;;3.00;0.80;;;14.70;61.80;;;;;;5076310;28;20060;-75
2022/03/28 01:46:44;;;;;;;1.85;0.70;;;14.70;61.90;;;;;;5076160;28;20529;-74
2022/03/28 01:49:14;;;;;;;1.42;0.57;;;14.70;61.60;;;;;;5075889;28;20060;-73
2022/03/28 01:51:40;;;;;;;1.85;0.73;;;14.50;61.70;;;;;;5076136;28;20110;-74
2022/03/28 01:54:06;;;;;;;1.58;0.60;;;14.60;61.90;;;;;;5076594;28;20044;-73
2022/03/28 01:56:36;;;;;;;1.58;0.52;;;14.60;61.90;;;;;;5058442;28;20076;-76
2022/03/28 01:59:03;;;;;;;1.60;0.52;;;14.50;61.90;;;;;;5058809;28;20052;-74
2022/03/28 02:01:29;;;;;;;1.02;0.47;;;14.50;62.00;;;;;;5058534;28;20048;-75
2022/03/28 02:03:54;;;;;;;1.48;0.70;;;14.50;61.90;;;;;;5076494;28;20360;-76
2022/03/28 02:06:20;;;;;;;0.98;0.55;;;14.50;62.00;;;;;;5058594;28;20168;-75
2022/03/28 02:08:46;;;;;;;1.83;0.60;;;14.50;62.00;;;;;;5075863;28;20048;-75
2022/03/28 02:11:12;;;;;;;1.15;0.60;;;14.50;62.00;;;;;;5075741;28;20360;-75
2022/03/28 02:13:37;;;;;;;1.15;0.60;;;14.50;62.00;;;;;;5075471;28;20045;-76
2022/03/28 02:16:04;;;;;;;1.02;0.60;;;14.50;62.00;;;;;;5075588;28;20066;-74
2022/03/28 02:18:29;;;;;;;0.85;0.57;;;14.50;62.00;;;;;;5058575;28;20052;-77
2022/03/28 02:20:55;;;;;;;1.95;1.00;;;14.40;62.00;;;;;;5075621;28;20075;-74
2022/03/28 02:23:22;;;;;;;1.38;0.85;;;14.40;61.90;;;;;;5076116;28;20044;-75
2022/03/28 02:25:48;;;;;;;1.98;0.85;;;14.20;62.00;;;;;;5075420;28;20056;-74
2022/03/28 02:28:13;;;;;;;1.80;0.65;;;14.30;62.20;;;;;;5075461;28;20409;-75
2022/03/28 02:30:39;;;;;;;1.30;0.60;;;14.30;62.30;;;;;;5057918;28;20059;-74
2022/03/28 02:33:06;;;;;;;1.08;0.75;;;14.30;62.40;;;;;;5075466;28;20110;-75
2022/03/28 02:35:33;;;;;;;2.33;0.75;;;14.30;62.40;;;;;;5075674;28;20384;-75
2022/03/28 02:38:01;;;;;;;1.20;0.95;;;14.30;62.40;;;;;;5057967;28;20159;-75
2022/03/28 02:40:32;;;;;;;1.88;0.73;;;14.40;62.40;;;;;;5057942;28;20056;-76
2022/03/28 02:42:58;;;;;;;0.85;0.57;;;14.30;62.20;;;;;;5057995;28;20062;-74
2022/03/28 02:45:35;;;;;;;1.50;0.50;;;14.40;62.30;;;;;;5057828;28;20095;-76
2022/03/28 02:48:01;;;;;;;1.60;0.80;;;14.40;62.20;;;;;;5057734;28;20140;-75
2022/03/28 02:50:28;;;;;;;1.52;0.70;;;14.30;62.30;;;;;;5057540;28;20060;-74
2022/03/28 02:52:55;;;;;;;1.65;0.70;;;14.20;62.30;;;;;;5057971;28;20118;-73
2022/03/28 02:55:21;;;;;;;1.30;0.70;;;14.20;62.50;;;;;;5057631;28;20051;-75
2022/03/28 02:57:47;;;;;;;1.10;0.70;;;14.20;62.60;;;;;;5075063;28;20040;-74
2022/03/28 03:00:13;;;;;;;0.68;0.30;;;14.20;62.60;;;;;;5057607;28;20170;-76
2022/03/28 03:02:40;;;;;;;1.05;0.60;;;14.20;62.50;;;;;;5074969;28;20127;-77
2022/03/28 03:05:07;;;;;;;1.10;0.60;;;14.20;62.20;;;;;;5057753;28;20511;-75
2022/03/28 03:07:33;;;;;;;1.30;0.57;;;14.20;62.20;;;;;;5057450;28;20490;-75
2022/03/28 03:09:59;;;;;;;1.52;0.77;;;14.10;62.20;;;;;;5057702;28;20048;-75
2022/03/28 03:12:25;;;;;;;1.77;0.90;;;14.00;62.40;;;;;;5057425;28;20044;-73
2022/03/28 03:14:51;;;;;;;1.02;0.60;;;14.00;62.60;;;;;;5074742;28;20044;-75
2022/03/28 03:17:17;;;;;;;1.55;0.90;;;14.00;62.60;;;;;;5057333;28;20052;-74
2022/03/28 03:19:44;;;;;;;1.50;0.88;;;13.90;62.80;;;;;;5074954;28;20051;-75
2022/03/28 03:22:14;;;;;;;1.73;0.88;;;14.00;62.80;;;;;;5058037;28;20432;-75
2022/03/28 03:24:40;;;;;;;2.13;0.70;;;14.00;62.70;;;;;;5057312;28;20080;-73
2022/03/28 03:27:06;;;;;;;1.52;0.85;;;14.00;62.60;;;;;;5057105;28;20123;-74
2022/03/28 03:29:32;;;;;;;2.53;1.00;;;14.00;62.50;;;;;;5058146;28;20060;-75
2022/03/28 03:31:58;;;;;;;1.38;0.85;;;14.00;62.50;;;;;;5075011;28;20482;-74
2022/03/28 03:34:24;;;;;;;1.20;0.88;;;14.00;62.60;;;;;;5075625;28;20132;-76
2022/03/28 03:36:50;;;;;;;4.00;1.17;;;14.10;62.60;;;;;;5056921;28;20048;-75
2022/03/28 03:39:16;;;;;;;1.52;0.75;;;14.00;62.50;;;;;;5074663;28;20456;-73
2022/03/28 03:41:42;;;;;;;1.42;0.95;;;14.10;62.50;;;;;;5057260;28;20063;-75
2022/03/28 03:44:09;;;;;;;1.08;0.77;;;14.10;62.50;;;;;;5074651;28;20052;-73
2022/03/28 03:46:35;;;;;;;1.10;0.77;;;14.10;62.50;;;;;;5058875;28;20055;-75
2022/03/28 03:49:00;;;;;;;2.08;1.00;;;14.20;62.60;;;;;;5061233;28;20056;-74
2022/03/28 03:51:26;;;;;;;2.50;1.00;;;14.20;62.50;;;;;;5061477;28;20052;-75
2022/03/28 03:53:52;;;;;;;2.10;0.75;;;14.20;62.50;;;;;;5060963;28;20044;-74
2022/03/28 03:56:18;;;;;;;1.92;1.25;;;14.20;62.40;;;;;;5078734;28;20052;-75
2022/03/28 03:58:44;;;;;;;2.22;0.85;;;14.10;62.40;;;;;;5079102;28;20161;-74
2022/03/28 04:01:10;;;;;;;2.63;1.02;;;14.10;62.40;;;;;;5078499;28;20375;-74
2022/03/28 04:03:36;;;;;;;1.75;0.93;;;14.00;62.20;;;;;;5078487;28;20045;-75
2022/03/28 04:06:02;;;;;;;1.90;1.00;;;14.00;62.40;;;;;;5060731;28;20455;-75
2022/03/28 04:08:28;;;;;;;2.65;0.80;;;14.10;63.00;;;;;;5060968;28;20462;-73
2022/03/28 04:10:55;;;;;;;1.48;1.10;;;14.10;62.50;;;;;;5078578;28;20048;-75
2022/03/28 04:13:21;;;;;;;1.30;0.90;;;14.10;62.60;;;;;;5077989;28;20053;-75
2022/03/28 04:15:48;;;;;;;2.70;1.00;;;14.10;62.40;;;;;;5077996;28;20048;-75
2022/03/28 04:18:14;;;;;;;1.30;0.82;;;14.00;62.20;;;;;;5060606;28;20044;-74
2022/03/28 04:20:40;;;;;;;1.65;0.80;;;14.00;62.40;;;;;;5060294;28;20056;-74
2022/03/28 04:23:06;;;;;;;1.10;0.70;;;14.10;62.50;;;;;;5077879;28;20048;-76
2022/03/28 04:25:31;;;;;;;1.98;0.77;;;14.10;62.50;;;;;;5060245;28;20079;-75
2022/03/28 04:27:58;;;;;;;2.63;1.08;;;14.00;62.40;;;;;;5060196;28;20131;-76
2022/03/28 04:30:24;;;;;;;1.90;0.98;;;14.00;62.40;;;;;;5077751;28;20037;-75
2022/03/28 04:32:50;;;;;;;1.92;0.60;;;14.00;62.30;;;;;;5060228;28;20059;-73
2022/03/28 04:35:15;;;;;;;3.92;1.00;;;14.00;62.50;;;;;;5077581;28;20045;-73
2022/03/28 04:37:42;;;;;;;3.58;0.98;;;14.10;62.60;;;;;;5077612;28;20468;-78
2022/03/28 04:40:23;;;;;;;1.48;0.73;;;14.10;62.30;;;;;;5077348;28;20127;-75
2022/03/28 04:42:58;;;;;;;5.15;1.08;;;14.20;61.90;;;;;;5043376;28;20044;-74
2022/03/28 04:45:24;;;;;;;5.13;1.45;;;14.20;61.30;;;;;;5077453;28;20039;-75
2022/03/28 04:47:49;;;;;;;5.30;0.82;;;14.30;61.00;;;;;;5077420;28;20028;-73
2022/03/28 04:50:15;;;;;;;1.73;0.93;;;14.30;60.60;;;;;;5059368;28;20079;-75
2022/03/28 04:52:41;;;;;;;2.05;1.30;;;14.30;60.30;;;;;;5059913;28;20421;-83
2022/03/28 04:55:07;;;;;;;2.85;1.77;;;14.30;60.10;;;;;;5040128;28;20060;-76
2022/03/28 04:58:34;;;;;;;3.40;1.50;;;14.30;59.90;;;;;;5076087;28;20111;-77
2022/03/28 05:00:59;;;;;;;5.38;1.63;;;14.30;59.60;;;;;;4976623;28;20050;-76
2022/03/28 05:03:25;;;;;;;5.80;1.90;;;14.40;59.80;;;;;;4944228;28;20206;-77
2022/03/28 05:05:54;;;;;;;5.28;1.25;;;14.30;60.70;;;;;;5023058;28;20048;-76
2022/03/28 05:08:19;;;;;;;6.05;1.42;;;14.40;61.30;;;;;;5059282;28;20044;-77
2022/03/28 05:10:46;;;;;;;4.28;1.35;;;14.50;60.90;;;;;;5059277;28;20075;-77
2022/03/28 05:13:12;;;;;;;2.33;0.77;;;14.70;60.90;;;;;;5042795;28;20044;-77
2022/03/28 05:15:38;;;;;;;3.13;0.93;;;14.90;60.90;;;;;;5059000;28;20049;-76
2022/03/28 05:18:03;;;;;;;2.97;1.13;;;15.20;60.80;;;;;;5076889;28;20040;-76
2022/03/28 05:20:29;;;;;;;4.47;1.00;;;15.40;60.70;;;;;;5076767;28;20086;-77
2022/03/28 05:22:55;;;;;;;4.72;1.10;;;15.60;61.20;;;;;;5077162;28;20077;-73
2022/03/28 05:25:20;;;;;;;8.60;0.95;;;15.70;60.50;;;;;;5076712;28;20045;-77
2022/03/28 05:27:47;;;;;;;5.38;0.77;;;15.90;60.40;;;;;;5042368;28;20055;-77
2022/03/28 05:30:14;;;;;;;2.35;1.17;;;15.90;60.10;;;;;;5059016;28;20521;-77
2022/03/28 05:32:43;;;;;;;1.63;0.65;;;15.90;59.20;;;;;;5059500;28;20360;-79
2022/03/28 05:35:12;;;;;;;2.75;0.95;;;15.80;60.00;;;;;;5042055;28;20089;-80
2022/03/28 05:37:40;;;;;;;3.40;0.95;;;15.80;60.40;;;;;;5042280;28;20131;-75
2022/03/28 05:40:11;;;;;;;2.00;1.15;;;15.90;60.50;;;;;;5076313;28;20037;-82
2022/03/28 05:42:37;;;;;;;4.72;0.75;;;16.00;60.20;;;;;;5059306;28;20101;-79
2022/03/28 05:45:03;;;;;;;4.28;1.00;;;16.00;60.20;;;;;;5076654;28;20036;-81
2022/03/28 05:47:29;;;;;;;3.28;1.38;;;16.00;60.20;;;;;;5076076;28;20146;-79
2022/03/28 05:49:55;;;;;;;5.55;1.15;;;16.10;60.20;;;;;;5058537;28;20118;-79
2022/03/28 05:52:20;;;;;;;5.10;0.65;;;16.20;60.20;;;;;;5042303;28;20091;-79
2022/03/28 05:54:46;;;;;;;2.70;0.63;;;16.20;60.00;;;;;;5058857;28;20055;-78
2022/03/28 05:57:12;;;;;;;11.48;0.93;;;16.30;59.90;;;;;;5058454;28;20059;-78
2022/03/28 05:59:38;;;;;;;4.57;0.70;;;16.30;59.80;;;;;;5075934;28;20129;-79
2022/03/28 06:02:04;;;;;;;7.53;1.02;;;16.40;60.10;;;;;;5059134;28;20044;-78
2022/03/28 06:04:30;;;;;;;6.50;1.50;;;16.50;60.00;;;;;;5075482;28;20037;-79
2022/03/28 06:06:56;;;;;;;8.23;1.35;;;16.60;59.70;;;;;;5075917;28;20051;-78
2022/03/28 06:09:27;;;;;;;6.03;1.10;;;16.70;59.90;;;;;;5075755;28;20106;-76
2022/03/28 06:11:53;;;;;;;3.33;0.93;;;16.70;58.80;;;;;;5076020;28;20123;-74
2022/03/28 06:14:18;;;;;;;5.72;0.93;;;16.80;60.00;;;;;;5076213;28;20052;-74
2022/03/28 06:16:44;;;;;;;8.00;0.90;;;16.90;60.10;;;;;;5058039;28;20120;-77
2022/03/28 06:19:10;;;;;;;14.68;1.50;;;16.90;60.00;;;;;;5075785;28;20474;-77
2022/03/28 06:21:35;;;;;;;10.10;1.13;;;16.90;60.00;;;;;;5075797;28;20044;-75
2022/03/28 06:24:02;;;;;;;6.15;1.00;;;16.90;60.10;;;;;;5041250;28;20044;-77
2022/03/28 06:26:28;;;;;;;4.70;1.25;;;17.00;59.80;;;;;;5075692;28;20059;-76
2022/03/28 06:28:53;;;;;;;5.78;1.10;;;17.00;59.60;;;;;;5041434;28;20044;-78
2022/03/28 06:31:19;;;;;;;4.30;1.02;;;17.00;59.20;;;;;;5075539;28;20048;-78
2022/03/28 06:33:45;;;;;;;7.75;1.08;;;17.00;58.90;;;;;;5075671;28;20440;-77
2022/03/28 06:36:10;;;;;;;3.83;0.98;;;17.00;58.80;;;;;;5057929;28;20076;-76
2022/03/28 06:38:37;;;;;;;5.30;1.08;;;17.00;58.80;;;;;;5057949;28;20048;-75
2022/03/28 06:41:03;;;;;;;6.22;0.90;;;17.00;58.80;;;;;;5076053;28;20052;-77
2022/03/28 06:43:29;;;;;;;4.53;1.15;;;17.00;58.80;;;;;;5074941;28;20048;-79
2022/03/28 06:45:55;;;;;;;5.88;0.85;;;16.90;58.80;;;;;;5075275;28;20142;-76
2022/03/28 06:48:21;;;;;;;2.60;0.88;;;16.90;58.80;;;;;;5058060;28;20123;-79
2022/03/28 06:50:47;;;;;;;7.43;1.00;;;16.80;58.80;;;;;;5057275;28;20128;-78
2022/03/28 06:53:13;;;;;;;4.05;0.90;;;16.80;58.90;;;;;;5057773;28;20109;-77
2022/03/28 06:55:39;;;;;;;2.58;0.70;;;16.70;58.80;;;;;;5074559;28;20383;-77
2022/03/28 06:58:05;;;;;;;3.00;0.60;;;16.60;58.80;;;;;;5057544;28;20048;-75
2022/03/28 07:00:31;;;;;;;3.28;1.00;;;16.60;59.60;;;;;;5074977;28;20040;-77
2022/03/28 07:02:57;;;;;;;5.47;1.63;;;16.60;59.10;;;;;;5074945;28;20121;-76
2022/03/28 07:05:23;;;;;;;5.28;1.20;;;16.50;59.10;;;;;;5055609;28;20048;-76
2022/03/28 07:07:50;;;;;;;7.65;0.82;;;16.50;59.20;;;;;;5094524;28;20063;-78
2022/03/28 07:10:20;;;;;;;5.10;0.82;;;16.40;59.30;;;;;;5093611;28;20371;-77
2022/03/28 07:12:46;;;;;;;5.30;0.93;;;16.40;59.50;;;;;;5085430;28;20094;-77
2022/03/28 07:15:13;;;;;;;3.20;0.80;;;16.40;59.70;;;;;;5094507;28;20107;-74
2022/03/28 07:17:55;;;;;;;3.47;0.80;;;16.30;59.80;;;;;;5094483;28;20076;-75
2022/03/28 07:20:22;;;;;;;3.88;0.98;;;16.40;59.90;;;;;;5093900;28;20047;-77
2022/03/28 07:22:48;;;;;;;4.45;1.55;;;16.30;59.90;;;;;;5073392;28;20075;-77
2022/03/28 07:25:14;;;;;;;4.95;1.08;;;16.40;60.20;;;;;;5074683;28;20730;-72
2022/03/28 07:27:41;;;;;;;3.97;1.13;;;16.40;60.50;;;;;;5092873;28;20087;-78
2022/03/28 07:30:09;;;;;;;4.22;0.80;;;16.40;60.70;;;;;;5097363;28;20036;-79
2022/03/28 07:32:35;;;;;;;6.65;1.75;;;16.40;60.90;;;;;;5097429;28;20048;-79
2022/03/28 07:35:02;;;;;;;5.03;1.55;;;16.40;61.10;;;;;;5097665;28;20051;-76
2022/03/28 07:37:28;;;;;;;4.82;1.00;;;16.40;61.50;;;;;;5097851;28;20043;-79
2022/03/28 07:39:55;;;;;;;7.13;1.58;;;16.40;61.70;;;;;;5063282;28;20047;-82
2022/03/28 07:42:20;;;;;;;6.57;1.00;;;16.40;61.70;;;;;;5077302;28;20040;-80
2022/03/28 07:44:49;;;;;;;5.93;1.30;;;16.30;61.90;;;;;;5096350;28;20051;-78
2022/03/28 07:47:15;;;;;;;5.50;1.20;;;16.30;62.60;;;;;;5065586;28;20475;-78
2022/03/28 07:49:40;;;;;;;6.53;0.80;;;16.30;62.40;;;;;;5084928;28;20044;-76
2022/03/28 07:52:09;;;;;;;7.60;0.90;;;16.30;62.40;;;;;;5081905;28;20105;-74
2022/03/28 07:54:36;;;;;;;4.30;1.15;;;16.40;62.30;;;;;;5092530;28;20039;-74
2022/03/28 07:57:03;;;;;;;6.30;0.88;;;16.40;62.30;;;;;;5073846;28;20052;-78
2022/03/28 07:59:29;;;;;;;6.10;1.02;;;16.50;62.40;;;;;;5096588;28;20109;-77
2022/03/28 08:01:55;;;;;;;5.93;0.68;;;16.60;62.40;;;;;;5098159;28;20117;-77
2022/03/28 08:04:21;;;;;;;9.93;1.60;;;16.60;62.50;;;;;;5094413;28;20071;-77
2022/03/28 08:06:47;;;;;;;8.32;1.23;;;16.70;62.60;;;;;;5100463;28;20455;-76
2022/03/28 08:09:13;;;;;;;4.40;0.77;;;16.70;62.70;;;;;;5093905;28;20040;-77
2022/03/28 08:11:38;;;;;;;4.80;0.98;;;16.80;62.80;;;;;;5094201;28;20036;-77
2022/03/28 08:14:04;;;;;;;5.80;1.30;;;16.90;63.00;;;;;;5073053;28;20464;-76
2022/03/28 08:16:31;;;;;;;5.20;0.80;;;16.90;63.20;;;;;;5087798;28;20039;-75
2022/03/28 08:18:56;;;;;;;6.32;0.73;;;16.90;62.90;;;;;;5094645;28;20055;-76
2022/03/28 08:21:22;;;;;;;4.88;0.85;;;16.90;63.40;;;;;;5094452;28;20048;-77
2022/03/28 08:23:48;;;;;;;5.40;1.00;;;16.90;63.60;;;;;;5094500;28;20052;-77
2022/03/28 08:26:14;;;;;;;4.15;0.93;;;16.90;63.60;;;;;;5077414;28;20048;-75
2022/03/28 08:28:39;;;;;;;6.28;0.88;;;17.00;63.90;;;;;;5077073;28;20044;-75
2022/03/28 08:31:06;;;;;;;5.80;0.63;;;17.00;63.90;;;;;;5095303;28;20059;-76
2022/03/28 08:33:32;;;;;;;6.57;0.88;;;17.00;64.00;;;;;;5094328;28;20098;-75
2022/03/28 08:35:58;;;;;;;5.28;1.45;;;17.00;64.00;;;;;;5060253;28;20048;-75
2022/03/28 08:38:23;;;;;;;3.38;0.95;;;17.00;63.90;;;;;;5077134;28;20387;-75
2022/03/28 08:40:51;;;;;;;2.40;0.75;;;17.00;63.80;;;;;;5078798;28;20055;-76
2022/03/28 08:43:22;;;;;;;4.47;0.82;;;16.90;63.70;;;;;;5097739;28;20082;-77
2022/03/28 08:45:51;;;;;;;2.63;0.95;;;16.90;63.80;;;;;;5097360;28;20051;-76
2022/03/28 08:48:18;;;;;;;7.43;1.30;;;16.90;63.50;;;;;;5079710;28;20097;-77
2022/03/28 08:50:46;;;;;;;4.22;0.88;;;16.90;63.10;;;;;;5077476;28;20094;-76
2022/03/28 08:53:13;;;;;;;2.33;0.90;;;16.90;62.90;;;;;;5097386;28;20035;-78
2022/03/28 08:55:40;;;;;;;4.05;1.00;;;16.90;62.90;;;;;;5091933;28;20117;-77
2022/03/28 08:58:06;;;;;;;3.65;1.10;;;16.80;62.90;;;;;;5079790;28;20455;-74
2022/03/28 09:00:32;;;;;;;4.30;1.15;;;16.80;62.90;;;;;;5096828;28;20040;-76
2022/03/28 09:02:58;;;;;;;4.82;1.05;;;16.80;62.80;;;;;;5078360;28;20109;-74
2022/03/28 09:05:34;;;;;;;3.83;0.90;;;16.80;62.50;;;;;;5096893;28;20055;-76
2022/03/28 09:08:01;;;;;;;2.35;0.82;;;16.90;62.30;;;;;;5062680;28;20174;-76
2022/03/28 09:10:32;;;;;;;4.75;1.20;;;16.90;62.30;;;;;;5096979;28;20109;-75
2022/03/28 09:13:01;;;;;;;2.85;0.98;;;16.90;62.40;;;;;;5096394;28;20359;-76
2022/03/28 09:15:43;;;;;;;7.00;0.88;;;16.90;62.30;;;;;;5097041;28;20044;-75
2022/03/28 09:18:39;;;;;;;3.92;0.90;;;16.90;62.10;;;;;;5096747;28;20036;-76
2022/03/28 09:21:07;;;;;;;6.60;0.90;;;16.90;62.00;;;;;;5095440;28;20059;-78
2022/03/28 09:23:35;;;;;;;1.73;0.85;;;16.90;61.90;;;;;;5078797;28;20051;-76
2022/03/28 09:26:20;;;;;;;3.35;0.88;;;16.90;61.80;;;;;;5077843;28;20482;-77
2022/03/28 09:28:58;;;;;;;1.85;0.70;;;16.80;61.90;;;;;;5062103;28;20051;-77
2022/03/28 09:31:26;;;;;;;4.25;0.90;;;16.80;61.70;;;;;;5075728;28;20452;-77
2022/03/28 09:34:19;;;;;;;1.77;0.88;;;16.80;61.70;;;;;;5076511;28;20040;-76
2022/03/28 09:36:56;;;;;;;1.33;0.70;;;16.80;61.60;;;;;;5096155;28;20487;-78
2022/03/28 09:39:25;;;;;;;2.00;0.73;;;16.70;61.60;;;;;;5096610;28;20054;-76
2022/03/28 09:41:58;;;;;;;1.48;0.82;;;16.70;61.60;;;;;;5096207;28;20048;-75
2022/03/28 09:44:33;;;;;;;5.32;3.03;;;16.70;61.70;;;;;;5096052;28;20059;-75
2022/03/28 09:47:08;;;;;;;5.22;3.67;;;16.70;61.00;;;;;;5095507;28;20048;-77
2022/03/28 09:49:35;;;;;;;6.00;3.63;;;16.70;59.40;;;;;;5096182;28;20083;-78
2022/03/28 09:52:21;;;;;;;6.35;3.67;;;16.60;58.50;;;;;;5077811;28;20370;-78
2022/03/28 09:54:54;;;;;;;3.13;2.20;;;16.40;59.10;;;;;;5096283;28;20044;-78
2022/03/28 09:57:24;;;;;;;4.88;2.17;;;16.20;59.70;;;;;;5074594;28;20497;-77
2022/03/28 09:59:53;;;;;;;4.72;2.55;;;16.10;60.00;;;;;;5071137;28;20048;-76
2022/03/28 10:02:24;;;;;;;3.88;1.95;;;15.90;60.20;;;;;;5087916;28;20035;-76
2022/03/28 10:04:56;;;;;;;5.80;1.98;;;15.90;60.50;;;;;;5096015;28;20425;-77
2022/03/28 10:07:22;;;;;;;4.93;2.20;;;15.80;60.80;;;;;;5095928;28;20123;-78
2022/03/28 10:09:50;;;;;;;3.35;1.95;;;15.80;60.90;;;;;;5095774;28;20051;-77
2022/03/28 10:12:18;;;;;;;5.18;1.95;;;15.70;61.00;;;;;;5095099;28;20486;-78
2022/03/28 10:14:57;;;;;;;4.55;2.15;;;15.60;61.20;;;;;;5077982;28;20044;-77
2022/03/28 10:17:24;;;;;;;3.47;2.25;;;15.60;61.20;;;;;;5095679;28;20039;-78
2022/03/28 10:19:54;;;;;;;3.08;1.70;;;15.70;61.20;;;;;;5095748;28;20028;-78
2022/03/28 10:22:32;;;;;;;4.75;2.00;;;15.70;61.00;;;;;;5077571;28;20039;-84
2022/03/28 10:25:03;;;;;;;6.40;2.45;;;15.80;60.80;;;;;;5095597;28;20393;-76
2022/03/28 10:27:31;;;;;;;5.03;2.20;;;15.90;60.60;;;;;;5069599;28;20427;-77
2022/03/28 10:30:12;;;;;;;4.07;1.83;;;15.90;60.10;;;;;;5095634;28;20039;-79
2022/03/28 10:32:38;;;;;;;6.03;2.00;;;16.00;59.80;;;;;;5095674;28;20050;-78
2022/03/28 10:35:07;;;;;;;5.50;2.65;;;16.00;59.90;;;;;;5095272;28;20070;-76
2022/03/28 10:37:45;;;;;;;5.18;2.53;;;16.00;60.60;;;;;;5067688;28;20060;-78
2022/03/28 10:40:23;;;;;;;6.63;2.08;;;16.10;61.40;;;;;;5094395;28;20105;-77
2022/03/28 10:43:14;;;;;;;5.45;2.30;;;16.00;60.80;;;;;;5061195;28;20370;-80
2022/03/28 10:45:45;;;;;;;6.50;3.00;;;15.90;61.60;;;;;;5095085;28;20528;-77
2022/03/28 10:48:12;;;;;;;6.85;2.70;;;15.90;61.70;;;;;;5094911;28;20134;-78
2022/03/28 10:51:01;;;;;;;6.22;2.53;;;15.90;61.70;;;;;;5073794;28;20110;-77
2022/03/28 10:53:37;;;;;;;4.57;2.53;;;16.00;61.70;;;;;;5072903;28;20070;-78
2022/03/28 10:56:10;;;;;;;5.25;2.78;;;16.00;61.30;;;;;;5069566;28;20053;-78
2022/03/28 10:58:40;;;;;;;8.80;2.40;;;16.00;61.20;;;;;;5074045;28;20094;-76
2022/03/28 11:01:09;;;;;;;4.13;1.88;;;16.00;61.20;;;;;;5074708;28;20051;-79
2022/03/28 11:03:48;;;;;;;4.93;2.30;;;16.00;61.20;;;;;;5074719;28;20028;-77
2022/03/28 11:06:15;;;;;;;4.68;1.80;;;15.90;61.30;;;;;;5073720;28;20048;-79
2022/03/28 11:08:59;;;;;;;3.90;1.70;;;16.00;61.50;;;;;;5066892;28;20036;-78
2022/03/28 11:11:32;;;;;;;4.75;2.63;;;16.00;61.70;;;;;;5071501;28;20098;-78
2022/03/28 11:14:09;;;;;;;6.80;2.45;;;16.00;61.70;;;;;;5089960;28;20055;-76
2022/03/28 11:16:52;;;;;;;5.50;3.65;;;15.90;61.90;;;;;;5074367;28;20040;-77
2022/03/28 11:19:20;;;;;;;6.97;4.37;;;16.00;61.10;;;;;;5074473;28;20041;-77
2022/03/28 11:22:00;;;;;;;7.07;4.93;;;16.00;60.20;;;;;;5074694;28;20145;-75
2022/03/28 11:24:49;;;;;;;6.78;4.78;;;16.00;58.70;;;;;;5074244;28;20086;-77
2022/03/28 11:27:19;;;;;;;7.00;4.82;;;16.00;57.70;;;;;;5074268;28;20090;-76
2022/03/28 11:29:46;;;;;;;7.25;4.53;;;16.00;57.10;;;;;;5074087;28;20044;-76
2022/03/28 11:32:17;;;;;;;7.70;3.65;;;16.00;57.60;;;;;;5073282;28;20110;-77
2022/03/28 11:34:51;;;;;;;7.40;3.28;;;15.90;58.10;;;;;;5074402;28;20052;-75
2022/03/28 11:37:25;;;;;;;7.82;3.30;;;15.90;58.40;;;;;;5069953;28;20057;-79
2022/03/28 11:39:58;;;;;;;4.93;3.15;;;15.90;58.40;;;;;;5054225;28;20128;-76
2022/03/28 11:42:28;;;;;;;8.98;3.10;;;15.90;58.40;;;;;;5054839;28;20048;-74
2022/03/28 11:44:55;;;;;;;9.52;3.50;;;15.90;58.60;;;;;;5054892;28;20357;-79
2022/03/28 11:47:22;;;;;;;5.13;2.50;;;15.90;59.10;;;;;;5054157;28;20045;-78
2022/03/28 11:50:00;;;;;;;8.60;2.80;;;15.90;59.50;;;;;;5053338;28;20072;-78
2022/03/28 11:52:28;;;;;;;7.18;2.72;;;15.90;60.00;;;;;;5054367;28;20036;-78
2022/03/28 11:54:56;;;;;;;6.97;3.20;;;16.00;60.30;;;;;;5052608;28;20083;-74
2022/03/28 12:00:22;;;;;;;9.95;3.67;;;16.00;60.20;;;;;;5054297;28;20060;-78
2022/03/28 12:02:53;;;;;;;5.00;2.85;;;16.00;60.40;;;;;;5066826;28;20086;-74
2022/03/28 12:05:32;;;;;;;12.35;3.25;;;15.90;60.50;;;;;;5070641;28;20056;-76
2022/03/28 12:08:18;;;;;;;9.13;2.97;;;16.00;60.40;;;;;;5076502;28;20617;-75
2022/03/28 12:10:50;;;;;;;6.97;2.70;;;15.90;60.40;;;;;;5077960;28;20093;-74
2022/03/28 12:13:17;;;;;;;3.75;2.55;;;15.90;60.30;;;;;;5077449;28;20348;-76
2022/03/28 12:15:46;;;;;;;6.50;2.35;;;15.90;60.40;;;;;;5062677;28;20040;-77
2022/03/28 12:18:17;;;;;;;9.23;2.55;;;15.90;60.50;;;;;;5073818;28;20060;-76
2022/03/28 12:20:48;;;;;;;5.47;2.05;;;15.90;60.50;;;;;;5069504;28;20087;-77
2022/03/28 12:23:16;;;;;;;5.00;2.85;;;15.90;60.60;;;;;;5073361;28;20049;-73
2022/03/28 12:25:44;;;;;;;2.85;1.95;;;15.90;60.70;;;;;;5070486;28;20052;-75
2022/03/28 12:28:27;;;;;;;6.30;2.17;;;15.90;60.80;;;;;;5077573;28;20067;-74
2022/03/28 12:30:55;;;;;;;5.63;2.00;;;15.90;60.70;;;;;;5077989;28;20098;-71
2022/03/28 12:33:27;;;;;;;5.75;2.72;;;15.90;60.80;;;;;;5076728;28;20071;-75
2022/03/28 12:35:58;;;;;;;6.55;3.03;;;15.90;60.90;;;;;;5070332;28;20105;-76
2022/03/28 12:38:29;;;;;;;8.02;4.00;;;15.90;60.80;;;;;;5077342;28;20071;-77
2022/03/28 12:40:58;;;;;;;8.25;3.25;;;15.90;60.70;;;;;;5069504;28;20045;-75
2022/03/28 12:43:27;;;;;;;7.95;3.50;;;15.90;60.70;;;;;;5077380;28;20359;-75
2022/03/28 12:45:58;;;;;;;8.07;3.22;;;16.00;60.90;;;;;;5077443;28;20083;-75
2022/03/28 12:48:52;;;;;;;8.60;3.53;;;16.00;61.10;;;;;;5077253;28;20120;-76
2022/03/28 12:51:29;;;;;;;13.15;3.95;;;16.10;61.50;;;;;;5072616;28;20194;-76
2022/03/28 12:54:09;;;;;;;8.77;2.83;;;16.20;61.70;;;;;;5065639;28;20053;-76
2022/03/28 12:56:46;;;;;;;11.93;2.70;;;16.30;61.60;;;;;;5074460;28;20448;-74
2022/03/28 12:59:24;;;;;;;6.43;2.13;;;16.40;61.60;;;;;;5059517;28;20075;-75